»·PEaware :: UPS736 KPDX-KONT

UPS736 :: KPDX-KONT

FLIGHT INFORMATION

Flight Status: Arrived
Operator:
United Parcel Service
More flights by this operator :: More flights under this callsign
Pilot: Luis R. (31517)
Aircraft: BOEING 747-400 (WINGLETS)
(B744)
More flights by this aircraft type
Origin: KPDX Portland Intl
United States
Destination: KONT Ontario Intl
United States
More flights between these airports :: More routes between these airports
Route: +CASCD2 PAWLI Q11 PUSHH TTE ZIGGY7
File this flight plan on PilotEdge
Remarks: UPSVAC.COM
Altitude:
(Current/Filed)
35,000ft
Speed:
(Current/Filed)
496kts
Departed: 03-Oct-20 08:02 AM
Arrived: 03-Oct-20 09:51 AM
Distance/Time
Traveled:
729nm/1:49
Distance/Time
To Go:
Arrived

Flight Plot

Page will automatically refresh every two minutes.

Flight plan parsing failed; only flown route is shown


Map Options




Map Legend


Flown Route
Filed Route
Departure Airport
Arrival Airport
Navaid (VOR, NDB)
Fix

Horizontal Profiles

Position Reports

Time Latitude Longitude Heading Altitude Ground
Speed
03-Oct-20 07:34 45.583987 -122.609452 134 43ft 0kts
03-Oct-20 07:35 45.583987 -122.609452 134 43ft 0kts
03-Oct-20 07:36 45.583987 -122.609452 134 43ft 0kts
03-Oct-20 07:37 45.583987 -122.609452 134 43ft 0kts
03-Oct-20 07:38 45.583987 -122.609452 134 43ft 0kts
03-Oct-20 07:39 45.583987 -122.609452 134 43ft 0kts
03-Oct-20 07:40 45.583987 -122.609452 134 43ft 0kts
03-Oct-20 07:41 45.583987 -122.609452 134 43ft 0kts
03-Oct-20 07:42 45.583987 -122.609452 134 43ft 0kts
03-Oct-20 07:43 45.583987 -122.609452 134 43ft 0kts
03-Oct-20 07:44 45.583987 -122.609452 134 43ft 0kts
03-Oct-20 07:45 45.583987 -122.609452 134 43ft 0kts
03-Oct-20 07:46 45.583987 -122.609452 134 43ft 0kts
03-Oct-20 07:47 45.583987 -122.609452 134 43ft 0kts
03-Oct-20 07:48 45.583987 -122.609452 134 43ft 0kts
03-Oct-20 07:49 45.583987 -122.609452 134 43ft 0kts
03-Oct-20 07:50 45.583987 -122.609452 134 43ft 0kts
03-Oct-20 07:51 45.584197 -122.610096 78 43ft 2kts
03-Oct-20 07:52 45.583768 -122.611021 43 43ft 2kts
03-Oct-20 07:53 45.583575 -122.611289 46 43ft 0kts
03-Oct-20 07:54 45.583652 -122.611174 46 43ft 5kts
03-Oct-20 07:55 45.585626 -122.608735 359 43ft 10kts
03-Oct-20 07:56 45.588202 -122.607031 329 43ft 11kts
03-Oct-20 07:57 45.589814 -122.612017 267 43ft 12kts
03-Oct-20 07:58 45.591497 -122.618129 299 43ft 23kts
03-Oct-20 07:59 45.593079 -122.622176 304 43ft 8kts
03-Oct-20 08:00 45.594738 -122.620375 118 43ft 16kts
03-Oct-20 08:01 45.578138 -122.578046 118 527ft 187kts
03-Oct-20 08:02 45.569390 -122.495356 93 2101ft 251kts
03-Oct-20 08:03 45.553440 -122.391718 105 4904ft 273kts
03-Oct-20 08:04 45.515129 -122.298595 143 7639ft 290kts
03-Oct-20 08:05 45.438867 -122.258980 171 10347ft 303kts
03-Oct-20 08:06 45.344253 -122.234028 169 11159ft 388kts
03-Oct-20 08:07 45.234737 -122.202375 169 13800ft 412kts
03-Oct-20 08:08 45.119792 -122.169118 169 16797ft 430kts
03-Oct-20 08:09 45.004068 -122.115748 155 19505ft 449kts
03-Oct-20 08:10 44.889607 -122.037660 155 21932ft 466kts
03-Oct-20 08:11 44.770678 -121.958359 155 23388ft 478kts
03-Oct-20 08:12 44.648304 -121.876629 155 25604ft 491kts
03-Oct-20 08:13 44.523219 -121.793924 155 27482ft 502kts
03-Oct-20 08:14 44.397229 -121.711125 155 29822ft 495kts
03-Oct-20 08:15 44.273498 -121.630205 156 31875ft 488kts
03-Oct-20 08:16 44.150828 -121.550354 156 33625ft 483kts
03-Oct-20 08:17 44.029794 -121.471927 156 35082ft 479kts
03-Oct-20 08:18 43.909022 -121.394022 156 35344ft 479kts
03-Oct-20 08:19 43.787972 -121.316287 156 35340ft 478kts
03-Oct-20 08:20 43.667550 -121.239300 156 35328ft 477kts
03-Oct-20 08:21 43.546603 -121.162317 156 35324ft 477kts
03-Oct-20 08:22 43.426259 -121.085789 156 35322ft 477kts
03-Oct-20 08:23 43.305300 -121.009580 156 35318ft 477kts
03-Oct-20 08:24 43.184159 -120.935739 162 35315ft 476kts
03-Oct-20 08:25 43.054791 -120.899291 171 35319ft 475kts
03-Oct-20 08:26 42.924613 -120.868705 170 35318ft 475kts
03-Oct-20 08:27 42.794200 -120.837173 170 35317ft 474kts
03-Oct-20 08:28 42.664704 -120.805815 170 35316ft 474kts
03-Oct-20 08:29 42.534298 -120.774442 170 35318ft 474kts
03-Oct-20 08:30 42.404269 -120.743302 170 35321ft 474kts
03-Oct-20 08:31 42.274692 -120.712401 170 35323ft 473kts
03-Oct-20 08:32 42.145076 -120.681621 170 35325ft 473kts
03-Oct-20 08:33 42.015499 -120.650977 170 35321ft 473kts
03-Oct-20 08:34 41.885877 -120.620449 169 35317ft 473kts
03-Oct-20 08:35 41.755808 -120.589940 169 35311ft 473kts
03-Oct-20 08:36 41.626169 -120.559658 169 35310ft 473kts
03-Oct-20 08:37 41.496382 -120.529464 169 35309ft 474kts
03-Oct-20 08:38 41.366436 -120.499354 169 35310ft 474kts
03-Oct-20 08:39 41.236551 -120.469284 169 35310ft 474kts
03-Oct-20 08:40 41.106226 -120.439388 169 35309ft 474kts
03-Oct-20 08:41 40.976470 -120.408521 167 35307ft 474kts
03-Oct-20 08:42 40.848010 -120.367949 166 35302ft 473kts
03-Oct-20 08:43 40.719772 -120.328132 166 35299ft 474kts
03-Oct-20 08:44 40.591683 -120.288461 166 35296ft 473kts
03-Oct-20 08:45 40.463604 -120.249037 166 35295ft 473kts
03-Oct-20 08:46 40.335112 -120.209713 165 35296ft 472kts
03-Oct-20 08:47 40.207424 -120.170799 165 35301ft 472kts
03-Oct-20 08:48 40.079203 -120.131875 165 35311ft 472kts
03-Oct-20 08:49 39.951386 -120.093223 165 35334ft 472kts
03-Oct-20 08:50 39.823165 -120.054598 165 35341ft 472kts
03-Oct-20 08:51 39.695164 -120.016186 165 35343ft 473kts
03-Oct-20 08:52 39.567010 -119.977875 165 35338ft 473kts
03-Oct-20 08:53 39.438661 -119.939650 166 35340ft 474kts
03-Oct-20 08:54 39.309954 -119.901464 166 35357ft 475kts
03-Oct-20 08:55 39.180301 -119.863142 166 35359ft 477kts
03-Oct-20 08:56 39.050702 -119.824981 166 35352ft 478kts
03-Oct-20 08:57 38.920838 -119.786885 166 35349ft 479kts
03-Oct-20 08:58 38.790710 -119.748854 166 35358ft 480kts
03-Oct-20 08:59 38.659886 -119.710761 166 35316ft 481kts
03-Oct-20 09:00 38.529434 -119.672812 166 35292ft 482kts
03-Oct-20 09:02 38.398294 -119.634982 166 35293ft 482kts
03-Oct-20 09:03 38.267160 -119.598303 168 35292ft 483kts
03-Oct-20 09:04 38.135313 -119.565551 168 35317ft 483kts
03-Oct-20 09:05 38.003612 -119.532539 168 35344ft 483kts
03-Oct-20 09:06 37.871320 -119.499186 168 35347ft 483kts
03-Oct-20 09:07 37.739368 -119.466134 168 35311ft 483kts
03-Oct-20 09:08 37.607462 -119.433245 168 35314ft 483kts
03-Oct-20 09:09 37.475267 -119.400408 168 35297ft 484kts
03-Oct-20 09:10 37.343021 -119.367676 168 35243ft 485kts
03-Oct-20 09:11 37.210871 -119.335086 168 35186ft 484kts
03-Oct-20 09:12 37.078594 -119.302580 168 35137ft 484kts
03-Oct-20 09:13 36.946332 -119.270194 168 35094ft 485kts
03-Oct-20 09:14 36.813842 -119.237866 168 35074ft 485kts
03-Oct-20 09:15 36.681019 -119.205570 168 35058ft 485kts
03-Oct-20 09:16 36.548736 -119.173519 168 35049ft 485kts
03-Oct-20 09:16 36.438199 -119.146821 168 35042ft 484kts
03-Oct-20 09:18 36.284124 -119.109736 168 35037ft 484kts
03-Oct-20 09:19 36.151320 -119.077805 168 35037ft 484kts
03-Oct-20 09:19 36.041107 -119.051499 168 35040ft 485kts
03-Oct-20 09:20 35.908520 -119.019267 166 35040ft 487kts
03-Oct-20 09:22 35.757061 -118.962924 162 35039ft 486kts
03-Oct-20 09:22 35.648891 -118.922386 163 35031ft 487kts
03-Oct-20 09:23 35.519387 -118.874015 162 35029ft 487kts
03-Oct-20 09:24 35.389855 -118.825878 163 35041ft 486kts
03-Oct-20 09:25 35.259961 -118.777719 163 35089ft 486kts
03-Oct-20 09:26 35.130993 -118.730246 163 34687ft 473kts
03-Oct-20 09:27 35.026677 -118.642145 130 32552ft 455kts
03-Oct-20 09:28 34.951286 -118.522220 133 30518ft 438kts
03-Oct-20 09:29 34.872239 -118.412346 130 28505ft 424kts
03-Oct-20 09:30 34.797840 -118.303828 130 26513ft 411kts
03-Oct-20 09:31 34.725362 -118.199072 130 24564ft 398kts
03-Oct-20 09:32 34.655098 -118.097941 130 22660ft 385kts
03-Oct-20 09:33 34.597007 -117.990989 118 20748ft 376kts
03-Oct-20 09:34 34.547809 -117.880220 119 18829ft 368kts
03-Oct-20 09:35 34.498594 -117.772993 119 16985ft 359kts
03-Oct-20 09:36 34.450430 -117.668517 118 15179ft 352kts
03-Oct-20 09:37 34.405272 -117.570605 118 14267ft 306kts
03-Oct-20 09:38 34.364468 -117.482314 118 13926ft 296kts
03-Oct-20 09:39 34.321280 -117.398994 135 12090ft 285kts
03-Oct-20 09:40 34.262361 -117.342728 141 10387ft 266kts
03-Oct-20 09:41 34.205054 -117.289002 141 8791ft 244kts
03-Oct-20 09:42 34.152859 -117.240062 141 7567ft 235kts
03-Oct-20 09:43 34.097072 -117.243548 233 6419ft 231kts
03-Oct-20 09:44 34.073066 -117.311207 251 4902ft 212kts
03-Oct-20 09:45 34.059157 -117.377933 260 3640ft 199kts
03-Oct-20 09:46 34.053562 -117.439835 268 2910ft 176kts
03-Oct-20 09:47 34.054251 -117.496417 272 2411ft 167kts
03-Oct-20 09:48 34.054589 -117.552063 271 1457ft 166kts
03-Oct-20 09:49 34.054919 -117.601532 269 957ft 78kts
03-Oct-20 09:50 34.053972 -117.611738 130 957ft 10kts
03-Oct-20 09:51 34.053838 -117.606451 90 957ft 21kts
03-Oct-20 09:52 34.053805 -117.599237 90 957ft 21kts
03-Oct-20 09:53 34.053780 -117.592175 90 957ft 21kts
03-Oct-20 09:54 34.053749 -117.585663 89 957ft 17kts
03-Oct-20 09:55 34.052711 -117.582563 160 957ft 8kts
03-Oct-20 09:56 34.051699 -117.580679 180 957ft 6kts
03-Oct-20 09:57 34.050755 -117.581579 269 957ft 0kts
03-Oct-20 09:58 34.050755 -117.581579 269 957ft 0kts
03-Oct-20 09:59 34.050755 -117.581579 269 957ft 0kts

Navigation Log

Ident Type
Flight plan parsing failed, navigation log unavailable